sensor_id;sensor_type;location;lat;lon;timestamp;P1;durP1;ratioP1;P2;durP2;ratioP2
3427;SDS011;1727;42.624;23.406;2023-06-22T00:00:52;12.00;;;10.80;;
3427;SDS011;1727;42.624;23.406;2023-06-22T00:03:19;12.57;;;11.27;;
3427;SDS011;1727;42.624;23.406;2023-06-22T00:05:47;12.87;;;11.50;;
3427;SDS011;1727;42.624;23.406;2023-06-22T00:08:16;11.20;;;10.10;;
3427;SDS011;1727;42.624;23.406;2023-06-22T00:10:44;13.77;;;11.87;;
3427;SDS011;1727;42.624;23.406;2023-06-22T00:13:11;13.50;;;12.20;;
3427;SDS011;1727;42.624;23.406;2023-06-22T00:15:40;13.10;;;11.60;;
3427;SDS011;1727;42.624;23.406;2023-06-22T00:18:07;12.23;;;11.03;;
3427;SDS011;1727;42.624;23.406;2023-06-22T00:20:35;13.03;;;11.73;;
3427;SDS011;1727;42.624;23.406;2023-06-22T00:23:03;12.90;;;11.43;;
3427;SDS011;1727;42.624;23.406;2023-06-22T00:25:34;11.47;;;9.60;;
3427;SDS011;1727;42.624;23.406;2023-06-22T00:28:01;12.97;;;11.00;;
3427;SDS011;1727;42.624;23.406;2023-06-22T00:30:29;14.63;;;12.23;;
3427;SDS011;1727;42.624;23.406;2023-06-22T00:32:56;11.83;;;10.63;;
3427;SDS011;1727;42.624;23.406;2023-06-22T00:35:24;14.23;;;10.80;;
3427;SDS011;1727;42.624;23.406;2023-06-22T00:37:53;11.27;;;10.23;;
3427;SDS011;1727;42.624;23.406;2023-06-22T00:40:25;12.63;;;11.33;;
3427;SDS011;1727;42.624;23.406;2023-06-22T00:42:54;12.90;;;11.50;;
3427;SDS011;1727;42.624;23.406;2023-06-22T00:45:21;12.17;;;11.03;;
3427;SDS011;1727;42.624;23.406;2023-06-22T00:47:49;12.13;;;11.00;;
3427;SDS011;1727;42.624;23.406;2023-06-22T00:50:17;12.57;;;11.27;;
3427;SDS011;1727;42.624;23.406;2023-06-22T00:52:48;14.17;;;10.63;;
3427;SDS011;1727;42.624;23.406;2023-06-22T00:55:17;12.27;;;10.97;;
3427;SDS011;1727;42.624;23.406;2023-06-22T00:57:45;12.27;;;11.10;;
3427;SDS011;1727;42.624;23.406;2023-06-22T01:00:14;12.73;;;11.53;;
3427;SDS011;1727;42.624;23.406;2023-06-22T01:02:44;11.00;;;9.90;;
3427;SDS011;1727;42.624;23.406;2023-06-22T01:05:12;12.57;;;11.43;;
3427;SDS011;1727;42.624;23.406;2023-06-22T01:07:40;11.90;;;10.70;;
3427;SDS011;1727;42.624;23.406;2023-06-22T01:10:15;12.27;;;11.20;;
3427;SDS011;1727;42.624;23.406;2023-06-22T01:12:48;11.63;;;10.53;;
3427;SDS011;1727;42.624;23.406;2023-06-22T01:15:20;12.53;;;11.33;;
3427;SDS011;1727;42.624;23.406;2023-06-22T01:17:50;12.63;;;11.00;;
3427;SDS011;1727;42.624;23.406;2023-06-22T01:20:19;14.17;;;11.90;;
3427;SDS011;1727;42.624;23.406;2023-06-22T01:22:50;14.67;;;12.13;;
3427;SDS011;1727;42.624;23.406;2023-06-22T01:25:31;13.80;;;12.33;;
3427;SDS011;1727;42.624;23.406;2023-06-22T01:28:15;21.43;;;12.63;;
3427;SDS011;1727;42.624;23.406;2023-06-22T01:30:50;13.13;;;11.80;;
3427;SDS011;1727;42.624;23.406;2023-06-22T01:33:28;13.60;;;11.90;;
3427;SDS011;1727;42.624;23.406;2023-06-22T01:35:55;13.03;;;11.70;;
3427;SDS011;1727;42.624;23.406;2023-06-22T01:38:22;13.03;;;11.10;;
3427;SDS011;1727;42.624;23.406;2023-06-22T01:40:50;13.77;;;12.37;;
3427;SDS011;1727;42.624;23.406;2023-06-22T01:43:17;13.53;;;12.13;;
3427;SDS011;1727;42.624;23.406;2023-06-22T01:45:46;13.00;;;11.70;;
3427;SDS011;1727;42.624;23.406;2023-06-22T01:48:14;13.83;;;12.47;;
3427;SDS011;1727;42.624;23.406;2023-06-22T01:50:42;19.00;;;13.60;;
3427;SDS011;1727;42.624;23.406;2023-06-22T01:53:10;14.67;;;13.23;;
3427;SDS011;1727;42.624;23.406;2023-06-22T01:55:36;16.13;;;13.80;;
3427;SDS011;1727;42.624;23.406;2023-06-22T01:58:03;14.93;;;13.50;;
3427;SDS011;1727;42.624;23.406;2023-06-22T02:00:31;14.63;;;13.20;;
3427;SDS011;1727;42.624;23.406;2023-06-22T02:02:59;14.93;;;13.53;;
3427;SDS011;1727;42.624;23.406;2023-06-22T02:05:33;16.20;;;13.67;;
3427;SDS011;1727;42.624;23.406;2023-06-22T02:08:05;16.90;;;12.57;;
3427;SDS011;1727;42.624;23.406;2023-06-22T02:10:35;15.90;;;14.03;;
3427;SDS011;1727;42.624;23.406;2023-06-22T02:13:04;17.60;;;14.20;;
3427;SDS011;1727;42.624;23.406;2023-06-22T02:15:33;16.20;;;14.23;;
3427;SDS011;1727;42.624;23.406;2023-06-22T02:18:00;15.13;;;13.53;;
3427;SDS011;1727;42.624;23.406;2023-06-22T02:20:27;15.47;;;13.87;;
3427;SDS011;1727;42.624;23.406;2023-06-22T02:22:55;14.40;;;12.90;;
3427;SDS011;1727;42.624;23.406;2023-06-22T02:25:22;16.90;;;13.10;;
3427;SDS011;1727;42.624;23.406;2023-06-22T02:27:49;15.57;;;14.07;;
3427;SDS011;1727;42.624;23.406;2023-06-22T02:30:16;15.57;;;13.80;;
3427;SDS011;1727;42.624;23.406;2023-06-22T02:32:43;19.47;;;14.03;;
3427;SDS011;1727;42.624;23.406;2023-06-22T02:35:09;18.47;;;15.00;;
3427;SDS011;1727;42.624;23.406;2023-06-22T02:37:37;19.17;;;15.60;;
3427;SDS011;1727;42.624;23.406;2023-06-22T02:40:08;17.80;;;15.90;;
3427;SDS011;1727;42.624;23.406;2023-06-22T02:42:36;15.47;;;13.93;;
3427;SDS011;1727;42.624;23.406;2023-06-22T02:45:03;17.50;;;15.60;;
3427;SDS011;1727;42.624;23.406;2023-06-22T02:47:30;15.63;;;14.10;;
3427;SDS011;1727;42.624;23.406;2023-06-22T02:49:57;17.30;;;15.10;;
3427;SDS011;1727;42.624;23.406;2023-06-22T02:52:24;15.80;;;14.20;;
3427;SDS011;1727;42.624;23.406;2023-06-22T02:54:51;19.13;;;16.27;;
3427;SDS011;1727;42.624;23.406;2023-06-22T02:57:19;17.60;;;15.47;;
3427;SDS011;1727;42.624;23.406;2023-06-22T02:59:45;20.97;;;16.30;;
3427;SDS011;1727;42.624;23.406;2023-06-22T03:02:12;15.93;;;14.17;;
3427;SDS011;1727;42.624;23.406;2023-06-22T03:04:39;15.70;;;13.90;;
3427;SDS011;1727;42.624;23.406;2023-06-22T03:07:06;25.40;;;15.47;;
3427;SDS011;1727;42.624;23.406;2023-06-22T03:09:32;14.63;;;13.23;;
3427;SDS011;1727;42.624;23.406;2023-06-22T03:11:59;18.40;;;13.40;;
3427;SDS011;1727;42.624;23.406;2023-06-22T03:14:28;15.97;;;13.60;;
3427;SDS011;1727;42.624;23.406;2023-06-22T03:16:55;16.67;;;14.77;;
3427;SDS011;1727;42.624;23.406;2023-06-22T03:19:26;16.73;;;13.93;;
3427;SDS011;1727;42.624;23.406;2023-06-22T03:21:54;17.03;;;15.03;;
3427;SDS011;1727;42.624;23.406;2023-06-22T03:24:21;22.30;;;15.53;;
3427;SDS011;1727;42.624;23.406;2023-06-22T03:26:48;16.73;;;14.93;;
3427;SDS011;1727;42.624;23.406;2023-06-22T03:29:15;19.17;;;15.87;;
3427;SDS011;1727;42.624;23.406;2023-06-22T03:31:43;18.43;;;15.90;;
3427;SDS011;1727;42.624;23.406;2023-06-22T03:34:10;19.73;;;15.47;;
3427;SDS011;1727;42.624;23.406;2023-06-22T03:36:36;17.00;;;13.83;;
3427;SDS011;1727;42.624;23.406;2023-06-22T03:39:03;22.03;;;14.60;;
3427;SDS011;1727;42.624;23.406;2023-06-22T03:41:30;15.93;;;14.17;;
3427;SDS011;1727;42.624;23.406;2023-06-22T03:43:57;14.87;;;13.10;;
3427;SDS011;1727;42.624;23.406;2023-06-22T03:46:23;15.83;;;14.13;;
3427;SDS011;1727;42.624;23.406;2023-06-22T03:48:52;16.30;;;14.73;;
3427;SDS011;1727;42.624;23.406;2023-06-22T03:51:18;15.57;;;13.87;;
3427;SDS011;1727;42.624;23.406;2023-06-22T03:53:45;16.33;;;14.60;;
3427;SDS011;1727;42.624;23.406;2023-06-22T03:56:13;16.00;;;14.30;;
3427;SDS011;1727;42.624;23.406;2023-06-22T03:58:45;13.80;;;12.40;;
3427;SDS011;1727;42.624;23.406;2023-06-22T04:01:12;15.23;;;12.73;;
3427;SDS011;1727;42.624;23.406;2023-06-22T04:03:38;15.40;;;12.27;;
3427;SDS011;1727;42.624;23.406;2023-06-22T04:06:09;13.00;;;11.30;;
3427;SDS011;1727;42.624;23.406;2023-06-22T04:08:35;13.10;;;11.70;;
3427;SDS011;1727;42.624;23.406;2023-06-22T04:11:02;13.07;;;11.77;;
3427;SDS011;1727;42.624;23.406;2023-06-22T04:13:30;17.03;;;12.90;;
3427;SDS011;1727;42.624;23.406;2023-06-22T04:15:57;17.70;;;13.30;;
3427;SDS011;1727;42.624;23.406;2023-06-22T04:18:23;14.47;;;12.97;;
3427;SDS011;1727;42.624;23.406;2023-06-22T04:20:50;14.00;;;12.17;;
3427;SDS011;1727;42.624;23.406;2023-06-22T04:23:18;17.50;;;11.67;;
3427;SDS011;1727;42.624;23.406;2023-06-22T04:25:45;14.40;;;11.27;;
3427;SDS011;1727;42.624;23.406;2023-06-22T04:28:12;21.40;;;10.47;;
3427;SDS011;1727;42.624;23.406;2023-06-22T04:31:00;11.83;;;10.60;;
3427;SDS011;1727;42.624;23.406;2023-06-22T04:33:27;11.70;;;10.57;;
3427;SDS011;1727;42.624;23.406;2023-06-22T04:35:55;13.03;;;11.73;;
3427;SDS011;1727;42.624;23.406;2023-06-22T04:38:24;12.57;;;11.43;;
3427;SDS011;1727;42.624;23.406;2023-06-22T04:40:50;15.57;;;12.43;;
3427;SDS011;1727;42.624;23.406;2023-06-22T04:43:18;13.57;;;12.27;;
3427;SDS011;1727;42.624;23.406;2023-06-22T04:45:45;14.40;;;12.90;;
3427;SDS011;1727;42.624;23.406;2023-06-22T04:48:17;13.47;;;12.07;;
3427;SDS011;1727;42.624;23.406;2023-06-22T04:50:44;14.70;;;12.03;;
3427;SDS011;1727;42.624;23.406;2023-06-22T04:53:11;16.00;;;14.50;;
3427;SDS011;1727;42.624;23.406;2023-06-22T04:55:39;14.37;;;12.50;;
3427;SDS011;1727;42.624;23.406;2023-06-22T04:58:10;17.03;;;11.60;;
3427;SDS011;1727;42.624;23.406;2023-06-22T05:00:38;13.57;;;12.30;;
3427;SDS011;1727;42.624;23.406;2023-06-22T05:03:05;16.23;;;14.53;;
3427;SDS011;1727;42.624;23.406;2023-06-22T05:05:36;13.30;;;11.90;;
3427;SDS011;1727;42.624;23.406;2023-06-22T05:08:03;14.50;;;11.80;;
3427;SDS011;1727;42.624;23.406;2023-06-22T05:10:32;13.40;;;11.37;;
3427;SDS011;1727;42.624;23.406;2023-06-22T05:13:00;11.87;;;10.63;;
3427;SDS011;1727;42.624;23.406;2023-06-22T05:15:27;11.83;;;10.63;;
3427;SDS011;1727;42.624;23.406;2023-06-22T05:17:55;13.40;;;11.93;;
3427;SDS011;1727;42.624;23.406;2023-06-22T05:20:23;12.00;;;10.80;;
3427;SDS011;1727;42.624;23.406;2023-06-22T05:22:50;12.00;;;10.80;;
3427;SDS011;1727;42.624;23.406;2023-06-22T05:25:17;13.10;;;11.63;;
3427;SDS011;1727;42.624;23.406;2023-06-22T05:27:44;16.30;;;14.07;;
3427;SDS011;1727;42.624;23.406;2023-06-22T05:30:12;14.87;;;13.30;;
3427;SDS011;1727;42.624;23.406;2023-06-22T05:32:41;16.00;;;12.97;;
3427;SDS011;1727;42.624;23.406;2023-06-22T05:35:09;16.70;;;14.73;;
3427;SDS011;1727;42.624;23.406;2023-06-22T05:37:36;19.30;;;15.23;;
3427;SDS011;1727;42.624;23.406;2023-06-22T05:40:03;19.73;;;15.80;;
3427;SDS011;1727;42.624;23.406;2023-06-22T05:42:32;17.23;;;15.17;;
3427;SDS011;1727;42.624;23.406;2023-06-22T05:44:59;17.87;;;15.97;;
3427;SDS011;1727;42.624;23.406;2023-06-22T05:47:27;19.70;;;15.40;;
3427;SDS011;1727;42.624;23.406;2023-06-22T05:49:54;31.63;;;14.67;;
3427;SDS011;1727;42.624;23.406;2023-06-22T05:52:20;27.37;;;14.70;;
3427;SDS011;1727;42.624;23.406;2023-06-22T05:54:47;16.70;;;14.97;;
3427;SDS011;1727;42.624;23.406;2023-06-22T05:57:14;23.83;;;16.07;;
3427;SDS011;1727;42.624;23.406;2023-06-22T05:59:41;17.00;;;14.40;;
3427;SDS011;1727;42.624;23.406;2023-06-22T06:02:08;22.70;;;16.40;;
3427;SDS011;1727;42.624;23.406;2023-06-22T06:04:36;16.33;;;14.67;;
3427;SDS011;1727;42.624;23.406;2023-06-22T06:07:03;16.40;;;14.77;;
3427;SDS011;1727;42.624;23.406;2023-06-22T06:09:30;20.90;;;14.57;;
3427;SDS011;1727;42.624;23.406;2023-06-22T06:11:57;17.27;;;12.90;;
3427;SDS011;1727;42.624;23.406;2023-06-22T06:14:23;17.13;;;14.40;;
3427;SDS011;1727;42.624;23.406;2023-06-22T06:16:50;24.37;;;15.07;;
3427;SDS011;1727;42.624;23.406;2023-06-22T06:19:17;17.90;;;15.00;;
3427;SDS011;1727;42.624;23.406;2023-06-22T06:21:45;22.80;;;14.53;;
3427;SDS011;1727;42.624;23.406;2023-06-22T06:24:12;18.27;;;15.27;;
3427;SDS011;1727;42.624;23.406;2023-06-22T06:26:39;17.83;;;14.23;;
3427;SDS011;1727;42.624;23.406;2023-06-22T06:29:06;15.07;;;13.63;;
3427;SDS011;1727;42.624;23.406;2023-06-22T06:31:32;21.00;;;14.60;;
3427;SDS011;1727;42.624;23.406;2023-06-22T06:34:00;13.13;;;11.97;;
3427;SDS011;1727;42.624;23.406;2023-06-22T06:36:27;16.30;;;14.30;;
3427;SDS011;1727;42.624;23.406;2023-06-22T06:38:55;18.43;;;13.17;;
3427;SDS011;1727;42.624;23.406;2023-06-22T06:41:22;18.97;;;12.90;;
3427;SDS011;1727;42.624;23.406;2023-06-22T06:43:49;14.17;;;12.00;;
3427;SDS011;1727;42.624;23.406;2023-06-22T06:46:17;17.40;;;13.47;;
3427;SDS011;1727;42.624;23.406;2023-06-22T06:48:44;13.77;;;12.47;;
3427;SDS011;1727;42.624;23.406;2023-06-22T06:51:11;13.67;;;11.47;;
3427;SDS011;1727;42.624;23.406;2023-06-22T06:53:37;12.50;;;11.30;;
3427;SDS011;1727;42.624;23.406;2023-06-22T06:56:06;15.07;;;13.47;;
3427;SDS011;1727;42.624;23.406;2023-06-22T06:58:35;17.20;;;14.33;;
3427;SDS011;1727;42.624;23.406;2023-06-22T07:01:02;12.73;;;11.43;;
3427;SDS011;1727;42.624;23.406;2023-06-22T07:03:29;14.27;;;10.53;;
3427;SDS011;1727;42.624;23.406;2023-06-22T07:05:57;18.83;;;13.73;;
3427;SDS011;1727;42.624;23.406;2023-06-22T07:08:24;15.80;;;12.57;;
3427;SDS011;1727;42.624;23.406;2023-06-22T07:10:51;13.40;;;12.00;;
3427;SDS011;1727;42.624;23.406;2023-06-22T07:13:20;16.03;;;14.20;;
3427;SDS011;1727;42.624;23.406;2023-06-22T07:15:49;18.20;;;12.43;;
3427;SDS011;1727;42.624;23.406;2023-06-22T07:18:16;18.70;;;12.93;;
3427;SDS011;1727;42.624;23.406;2023-06-22T07:20:42;19.07;;;14.20;;
3427;SDS011;1727;42.624;23.406;2023-06-22T07:23:09;13.10;;;11.90;;
3427;SDS011;1727;42.624;23.406;2023-06-22T07:25:36;15.57;;;12.83;;
3427;SDS011;1727;42.624;23.406;2023-06-22T07:28:04;16.83;;;13.27;;
3427;SDS011;1727;42.624;23.406;2023-06-22T07:30:33;15.03;;;13.53;;
3427;SDS011;1727;42.624;23.406;2023-06-22T07:33:00;13.97;;;12.67;;
3427;SDS011;1727;42.624;23.406;2023-06-22T07:35:29;13.77;;;12.37;;
3427;SDS011;1727;42.624;23.406;2023-06-22T07:37:56;14.40;;;12.90;;
3427;SDS011;1727;42.624;23.406;2023-06-22T07:40:22;19.93;;;13.90;;
3427;SDS011;1727;42.624;23.406;2023-06-22T07:42:49;16.87;;;13.30;;
3427;SDS011;1727;42.624;23.406;2023-06-22T07:45:16;14.50;;;12.90;;
3427;SDS011;1727;42.624;23.406;2023-06-22T07:47:45;14.67;;;12.53;;
3427;SDS011;1727;42.624;23.406;2023-06-22T07:50:12;13.27;;;11.87;;
3427;SDS011;1727;42.624;23.406;2023-06-22T07:52:39;23.40;;;12.17;;
3427;SDS011;1727;42.624;23.406;2023-06-22T07:55:06;14.60;;;12.23;;
3427;SDS011;1727;42.624;23.406;2023-06-22T07:57:33;14.47;;;13.23;;
3427;SDS011;1727;42.624;23.406;2023-06-22T08:00:01;15.90;;;14.07;;
3427;SDS011;1727;42.624;23.406;2023-06-22T08:02:36;14.67;;;12.77;;
3427;SDS011;1727;42.624;23.406;2023-06-22T08:05:05;16.03;;;13.07;;
3427;SDS011;1727;42.624;23.406;2023-06-22T08:07:33;25.33;;;13.13;;
3427;SDS011;1727;42.624;23.406;2023-06-22T08:10:00;20.43;;;14.57;;
3427;SDS011;1727;42.624;23.406;2023-06-22T08:12:27;14.97;;;13.43;;
3427;SDS011;1727;42.624;23.406;2023-06-22T08:14:54;15.40;;;12.83;;
3427;SDS011;1727;42.624;23.406;2023-06-22T08:17:22;17.03;;;13.47;;
3427;SDS011;1727;42.624;23.406;2023-06-22T08:19:48;15.30;;;13.63;;
3427;SDS011;1727;42.624;23.406;2023-06-22T08:22:17;15.47;;;13.87;;
3427;SDS011;1727;42.624;23.406;2023-06-22T08:24:44;20.23;;;14.10;;
3427;SDS011;1727;42.624;23.406;2023-06-22T08:27:11;13.70;;;12.50;;
3427;SDS011;1727;42.624;23.406;2023-06-22T08:29:38;14.27;;;12.70;;
3427;SDS011;1727;42.624;23.406;2023-06-22T08:32:07;21.73;;;15.27;;
3427;SDS011;1727;42.624;23.406;2023-06-22T08:34:35;16.60;;;12.97;;
3427;SDS011;1727;42.624;23.406;2023-06-22T08:37:02;28.23;;;13.90;;
3427;SDS011;1727;42.624;23.406;2023-06-22T08:39:32;24.03;;;14.23;;
3427;SDS011;1727;42.624;23.406;2023-06-22T08:41:59;16.57;;;13.53;;
3427;SDS011;1727;42.624;23.406;2023-06-22T08:44:26;26.53;;;14.53;;
3427;SDS011;1727;42.624;23.406;2023-06-22T08:46:53;14.90;;;12.50;;
3427;SDS011;1727;42.624;23.406;2023-06-22T08:49:20;20.50;;;12.90;;
3427;SDS011;1727;42.624;23.406;2023-06-22T08:51:47;14.63;;;12.43;;
3427;SDS011;1727;42.624;23.406;2023-06-22T08:54:14;13.97;;;12.53;;
3427;SDS011;1727;42.624;23.406;2023-06-22T08:56:42;17.57;;;11.50;;
3427;SDS011;1727;42.624;23.406;2023-06-22T08:59:09;18.07;;;12.67;;
3427;SDS011;1727;42.624;23.406;2023-06-22T09:01:36;14.03;;;12.53;;
3427;SDS011;1727;42.624;23.406;2023-06-22T09:04:03;18.23;;;13.37;;
3427;SDS011;1727;42.624;23.406;2023-06-22T09:06:32;14.43;;;11.70;;
3427;SDS011;1727;42.624;23.406;2023-06-22T09:08:59;14.10;;;12.67;;
3427;SDS011;1727;42.624;23.406;2023-06-22T09:11:26;14.43;;;12.30;;
3427;SDS011;1727;42.624;23.406;2023-06-22T09:13:54;15.60;;;13.43;;
3427;SDS011;1727;42.624;23.406;2023-06-22T09:16:21;13.13;;;11.80;;
3427;SDS011;1727;42.624;23.406;2023-06-22T09:18:48;14.63;;;12.70;;
3427;SDS011;1727;42.624;23.406;2023-06-22T09:21:15;12.63;;;11.43;;
3427;SDS011;1727;42.624;23.406;2023-06-22T09:23:42;15.13;;;12.10;;
3427;SDS011;1727;42.624;23.406;2023-06-22T09:26:10;12.97;;;10.90;;
3427;SDS011;1727;42.624;23.406;2023-06-22T09:28:37;12.83;;;11.27;;
3427;SDS011;1727;42.624;23.406;2023-06-22T09:31:05;15.80;;;12.03;;
3427;SDS011;1727;42.624;23.406;2023-06-22T09:33:32;11.67;;;10.50;;
3427;SDS011;1727;42.624;23.406;2023-06-22T09:35:59;14.40;;;13.00;;
3427;SDS011;1727;42.624;23.406;2023-06-22T09:38:26;11.90;;;10.87;;
3427;SDS011;1727;42.624;23.406;2023-06-22T09:40:52;13.20;;;11.93;;
3427;SDS011;1727;42.624;23.406;2023-06-22T09:43:19;12.97;;;10.73;;
3427;SDS011;1727;42.624;23.406;2023-06-22T09:45:46;13.43;;;12.20;;
3427;SDS011;1727;42.624;23.406;2023-06-22T09:48:14;11.37;;;10.37;;
3427;SDS011;1727;42.624;23.406;2023-06-22T09:50:41;11.70;;;10.30;;
3427;SDS011;1727;42.624;23.406;2023-06-22T09:53:08;11.30;;;10.37;;
3427;SDS011;1727;42.624;23.406;2023-06-22T09:55:35;12.83;;;10.70;;
3427;SDS011;1727;42.624;23.406;2023-06-22T09:58:01;12.20;;;10.97;;
3427;SDS011;1727;42.624;23.406;2023-06-22T10:00:28;12.63;;;11.23;;
3427;SDS011;1727;42.624;23.406;2023-06-22T10:02:55;16.27;;;12.77;;
3427;SDS011;1727;42.624;23.406;2023-06-22T10:05:23;12.80;;;11.70;;
3427;SDS011;1727;42.624;23.406;2023-06-22T10:07:51;15.80;;;11.20;;
3427;SDS011;1727;42.624;23.406;2023-06-22T10:10:17;13.83;;;11.07;;
3427;SDS011;1727;42.624;23.406;2023-06-22T10:12:45;13.77;;;12.43;;
3427;SDS011;1727;42.624;23.406;2023-06-22T10:15:14;12.60;;;11.30;;
3427;SDS011;1727;42.624;23.406;2023-06-22T10:17:41;18.77;;;12.37;;
3427;SDS011;1727;42.624;23.406;2023-06-22T10:20:08;13.50;;;12.20;;
3427;SDS011;1727;42.624;23.406;2023-06-22T10:22:39;13.33;;;11.40;;
3427;SDS011;1727;42.624;23.406;2023-06-22T10:25:07;13.13;;;11.93;;
3427;SDS011;1727;42.624;23.406;2023-06-22T10:27:34;12.37;;;11.10;;
3427;SDS011;1727;42.624;23.406;2023-06-22T10:30:05;12.97;;;11.67;;
3427;SDS011;1727;42.624;23.406;2023-06-22T10:32:32;15.63;;;12.30;;
3427;SDS011;1727;42.624;23.406;2023-06-22T10:34:59;12.03;;;10.70;;
3427;SDS011;1727;42.624;23.406;2023-06-22T10:37:26;12.30;;;11.07;;
3427;SDS011;1727;42.624;23.406;2023-06-22T10:39:54;12.77;;;11.50;;
3427;SDS011;1727;42.624;23.406;2023-06-22T10:42:21;11.80;;;10.63;;
3427;SDS011;1727;42.624;23.406;2023-06-22T10:44:48;12.40;;;11.10;;
3427;SDS011;1727;42.624;23.406;2023-06-22T10:47:15;12.00;;;10.67;;
3427;SDS011;1727;42.624;23.406;2023-06-22T10:49:42;11.33;;;10.13;;
3427;SDS011;1727;42.624;23.406;2023-06-22T10:52:08;14.00;;;11.60;;
3427;SDS011;1727;42.624;23.406;2023-06-22T10:54:36;15.70;;;11.37;;
3427;SDS011;1727;42.624;23.406;2023-06-22T10:57:05;13.20;;;10.90;;
3427;SDS011;1727;42.624;23.406;2023-06-22T10:59:32;14.90;;;13.40;;
3427;SDS011;1727;42.624;23.406;2023-06-22T11:01:59;13.03;;;11.10;;
3427;SDS011;1727;42.624;23.406;2023-06-22T11:04:27;13.20;;;11.90;;
3427;SDS011;1727;42.624;23.406;2023-06-22T11:06:54;12.53;;;10.93;;
3427;SDS011;1727;42.624;23.406;2023-06-22T11:09:21;14.57;;;11.07;;
3427;SDS011;1727;42.624;23.406;2023-06-22T11:11:48;12.23;;;11.07;;
3427;SDS011;1727;42.624;23.406;2023-06-22T11:14:19;15.27;;;12.10;;
3427;SDS011;1727;42.624;23.406;2023-06-22T11:16:46;23.23;;;11.87;;
3427;SDS011;1727;42.624;23.406;2023-06-22T11:19:13;14.50;;;11.40;;
3427;SDS011;1727;42.624;23.406;2023-06-22T11:21:40;16.47;;;12.03;;
3427;SDS011;1727;42.624;23.406;2023-06-22T11:24:07;15.13;;;11.47;;
3427;SDS011;1727;42.624;23.406;2023-06-22T11:26:34;11.20;;;10.00;;
3427;SDS011;1727;42.624;23.406;2023-06-22T11:29:02;12.50;;;11.30;;
3427;SDS011;1727;42.624;23.406;2023-06-22T11:31:32;12.97;;;11.73;;
3427;SDS011;1727;42.624;23.406;2023-06-22T11:33:59;12.80;;;11.50;;
3427;SDS011;1727;42.624;23.406;2023-06-22T11:36:25;13.13;;;11.10;;
3427;SDS011;1727;42.624;23.406;2023-06-22T11:38:54;11.80;;;10.70;;
3427;SDS011;1727;42.624;23.406;2023-06-22T11:41:21;13.50;;;12.17;;
3427;SDS011;1727;42.624;23.406;2023-06-22T11:43:48;12.80;;;11.70;;
3427;SDS011;1727;42.624;23.406;2023-06-22T11:46:14;16.83;;;13.97;;
3427;SDS011;1727;42.624;23.406;2023-06-22T11:48:43;13.33;;;12.03;;
3427;SDS011;1727;42.624;23.406;2023-06-22T11:51:09;13.97;;;12.40;;
3427;SDS011;1727;42.624;23.406;2023-06-22T11:53:36;18.83;;;17.03;;
3427;SDS011;1727;42.624;23.406;2023-06-22T11:56:03;12.13;;;11.03;;
3427;SDS011;1727;42.624;23.406;2023-06-22T11:58:30;14.00;;;12.07;;
3427;SDS011;1727;42.624;23.406;2023-06-22T12:00:57;12.47;;;11.20;;
3427;SDS011;1727;42.624;23.406;2023-06-22T12:03:24;12.87;;;11.67;;
3427;SDS011;1727;42.624;23.406;2023-06-22T12:05:52;12.70;;;11.40;;
3427;SDS011;1727;42.624;23.406;2023-06-22T12:08:19;13.97;;;11.20;;
3427;SDS011;1727;42.624;23.406;2023-06-22T12:10:46;12.00;;;10.90;;
3427;SDS011;1727;42.624;23.406;2023-06-22T12:13:12;12.53;;;11.33;;
3427;SDS011;1727;42.624;23.406;2023-06-22T12:15:39;12.17;;;11.13;;
3427;SDS011;1727;42.624;23.406;2023-06-22T12:18:06;11.70;;;10.60;;
3427;SDS011;1727;42.624;23.406;2023-06-22T12:20:33;12.50;;;11.27;;
3427;SDS011;1727;42.624;23.406;2023-06-22T12:23:01;14.67;;;12.50;;
3427;SDS011;1727;42.624;23.406;2023-06-22T12:25:28;14.33;;;11.63;;
3427;SDS011;1727;42.624;23.406;2023-06-22T12:27:55;13.33;;;12.03;;
3427;SDS011;1727;42.624;23.406;2023-06-22T12:30:22;15.83;;;13.63;;
3427;SDS011;1727;42.624;23.406;2023-06-22T12:32:49;15.47;;;11.60;;
3427;SDS011;1727;42.624;23.406;2023-06-22T12:35:16;17.67;;;13.27;;
3427;SDS011;1727;42.624;23.406;2023-06-22T12:37:43;18.80;;;12.77;;
3427;SDS011;1727;42.624;23.406;2023-06-22T12:40:13;11.20;;;10.10;;
3427;SDS011;1727;42.624;23.406;2023-06-22T12:42:40;16.67;;;12.20;;
3427;SDS011;1727;42.624;23.406;2023-06-22T12:45:08;13.70;;;12.00;;
3427;SDS011;1727;42.624;23.406;2023-06-22T12:47:35;15.87;;;11.53;;
3427;SDS011;1727;42.624;23.406;2023-06-22T12:50:02;16.33;;;12.73;;
3427;SDS011;1727;42.624;23.406;2023-06-22T12:52:30;19.60;;;14.07;;
3427;SDS011;1727;42.624;23.406;2023-06-22T12:54:57;23.73;;;14.80;;
3427;SDS011;1727;42.624;23.406;2023-06-22T12:57:25;25.50;;;16.87;;
3427;SDS011;1727;42.624;23.406;2023-06-22T12:59:52;24.20;;;17.63;;
3427;SDS011;1727;42.624;23.406;2023-06-22T13:02:19;20.30;;;15.50;;
3427;SDS011;1727;42.624;23.406;2023-06-22T13:04:46;27.00;;;16.40;;
3427;SDS011;1727;42.624;23.406;2023-06-22T13:07:13;25.10;;;15.53;;
3427;SDS011;1727;42.624;23.406;2023-06-22T13:09:39;16.17;;;12.90;;
3427;SDS011;1727;42.624;23.406;2023-06-22T13:12:06;24.33;;;13.80;;
3427;SDS011;1727;42.624;23.406;2023-06-22T13:14:35;19.60;;;12.77;;
3427;SDS011;1727;42.624;23.406;2023-06-22T13:17:02;19.30;;;13.13;;
3427;SDS011;1727;42.624;23.406;2023-06-22T13:19:29;19.73;;;14.57;;
3427;SDS011;1727;42.624;23.406;2023-06-22T13:21:57;20.47;;;14.37;;
3427;SDS011;1727;42.624;23.406;2023-06-22T13:24:25;18.07;;;14.07;;
3427;SDS011;1727;42.624;23.406;2023-06-22T13:26:51;25.77;;;14.80;;
3427;SDS011;1727;42.624;23.406;2023-06-22T13:29:18;20.27;;;13.77;;
3427;SDS011;1727;42.624;23.406;2023-06-22T13:31:46;18.53;;;15.10;;
3427;SDS011;1727;42.624;23.406;2023-06-22T13:34:13;18.63;;;13.97;;
3427;SDS011;1727;42.624;23.406;2023-06-22T13:36:40;17.73;;;12.93;;
3427;SDS011;1727;42.624;23.406;2023-06-22T13:39:07;20.80;;;13.70;;
3427;SDS011;1727;42.624;23.406;2023-06-22T13:41:34;18.00;;;12.70;;
3427;SDS011;1727;42.624;23.406;2023-06-22T13:44:00;18.73;;;13.60;;
3427;SDS011;1727;42.624;23.406;2023-06-22T13:46:27;18.13;;;12.37;;
3427;SDS011;1727;42.624;23.406;2023-06-22T13:48:56;21.53;;;12.57;;
3427;SDS011;1727;42.624;23.406;2023-06-22T13:51:22;12.53;;;10.63;;
3427;SDS011;1727;42.624;23.406;2023-06-22T13:53:49;15.70;;;12.43;;
3427;SDS011;1727;42.624;23.406;2023-06-22T13:56:16;18.73;;;12.73;;
3427;SDS011;1727;42.624;23.406;2023-06-22T13:58:43;15.90;;;10.90;;
3427;SDS011;1727;42.624;23.406;2023-06-22T14:01:10;12.83;;;11.63;;
3427;SDS011;1727;42.624;23.406;2023-06-22T14:03:36;21.37;;;11.63;;
3427;SDS011;1727;42.624;23.406;2023-06-22T14:06:05;15.60;;;11.43;;
3427;SDS011;1727;42.624;23.406;2023-06-22T14:08:31;14.37;;;12.87;;
3427;SDS011;1727;42.624;23.406;2023-06-22T14:10:58;22.37;;;13.17;;
3427;SDS011;1727;42.624;23.406;2023-06-22T14:13:25;16.23;;;13.30;;
3427;SDS011;1727;42.624;23.406;2023-06-22T14:15:52;17.83;;;12.60;;
3427;SDS011;1727;42.624;23.406;2023-06-22T14:18:19;18.83;;;12.90;;
3427;SDS011;1727;42.624;23.406;2023-06-22T14:20:47;18.87;;;12.77;;
3427;SDS011;1727;42.624;23.406;2023-06-22T14:23:15;15.03;;;12.60;;
3427;SDS011;1727;42.624;23.406;2023-06-22T14:25:42;15.60;;;12.97;;
3427;SDS011;1727;42.624;23.406;2023-06-22T14:28:09;16.00;;;12.53;;
3427;SDS011;1727;42.624;23.406;2023-06-22T14:30:36;20.63;;;12.97;;
3427;SDS011;1727;42.624;23.406;2023-06-22T14:33:03;17.60;;;12.93;;
3427;SDS011;1727;42.624;23.406;2023-06-22T14:35:29;19.73;;;13.80;;
3427;SDS011;1727;42.624;23.406;2023-06-22T14:37:56;19.23;;;13.57;;